Time;durP1;ratioP1;P1;durP2;ratioP2;P2;SDS_P1;SDS_P2;PMS_P1;PMS_P2;Temp;Humidity;BMP_temperature;BMP_pressure;BME280_temperature;BME280_humidity;BME280_pressure;Samples;Min_cycle;Max_cycle;Signal;HPM_P1;HPM_P2
2022/03/21 00:01:58;;;;;;;8.40;4.93;;;4.10;58.60;;;;;;5039351;28;20277;-80
2022/03/21 00:04:24;;;;;;;8.98;5.43;;;4.10;58.60;;;;;;5040211;28;20111;-80
2022/03/21 00:06:50;;;;;;;10.10;5.03;;;4.10;58.60;;;;;;5040085;28;20123;-79
2022/03/21 00:09:16;;;;;;;10.45;5.78;;;4.10;58.80;;;;;;5039400;28;20030;-80
2022/03/21 00:11:42;;;;;;;7.85;5.18;;;4.10;58.90;;;;;;5050115;28;20030;-79
2022/03/21 00:14:11;;;;;;;10.45;5.72;;;4.10;59.30;;;;;;5057426;28;20044;-78
2022/03/21 00:16:37;;;;;;;10.68;5.68;;;4.00;59.60;;;;;;5055820;28;20032;-79
2022/03/21 00:19:04;;;;;;;11.10;6.60;;;4.00;59.80;;;;;;5045367;28;20596;-80
2022/03/21 00:21:30;;;;;;;10.98;5.60;;;4.00;60.00;;;;;;5045624;28;20033;-79
2022/03/21 00:23:55;;;;;;;9.68;5.80;;;3.90;60.20;;;;;;5040823;28;20039;-79
2022/03/21 00:26:21;;;;;;;10.23;5.35;;;3.90;60.40;;;;;;5039988;28;20104;-79
2022/03/21 00:28:47;;;;;;;9.70;5.32;;;3.90;60.50;;;;;;5037751;28;20045;-79
2022/03/21 00:31:13;;;;;;;9.60;5.65;;;3.90;60.60;;;;;;5040131;28;20025;-79
2022/03/21 00:33:39;;;;;;;9.60;5.72;;;3.90;60.70;;;;;;5040237;28;20029;-79
2022/03/21 00:36:08;;;;;;;9.35;5.65;;;3.90;60.70;;;;;;5039953;28;20112;-79
2022/03/21 00:38:36;;;;;;;9.35;5.50;;;3.80;60.90;;;;;;5038306;28;20033;-79
2022/03/21 00:41:04;;;;;;;8.70;5.15;;;3.80;61.00;;;;;;5040493;28;20170;-80
2022/03/21 00:43:30;;;;;;;7.32;4.63;;;3.80;61.00;;;;;;5040686;28;20101;-81
2022/03/21 00:45:57;;;;;;;7.32;4.90;;;3.80;60.90;;;;;;5038701;28;20029;-80
2022/03/21 00:48:24;;;;;;;8.07;4.95;;;3.80;61.00;;;;;;5033045;28;20442;-80
2022/03/21 00:50:51;;;;;;;9.10;5.38;;;3.80;60.80;;;;;;5038548;28;20513;-80
2022/03/21 00:53:17;;;;;;;7.72;5.15;;;3.70;60.70;;;;;;5040485;28;20025;-80
2022/03/21 00:55:43;;;;;;;8.90;5.22;;;3.70;60.70;;;;;;5040206;28;20036;-80
2022/03/21 00:58:09;;;;;;;8.77;5.55;;;3.70;60.60;;;;;;5038128;28;20429;-80
2022/03/21 01:00:35;;;;;;;8.57;5.50;;;3.70;60.70;;;;;;5039614;28;20025;-80
2022/03/21 01:03:01;;;;;;;8.55;5.43;;;3.70;60.70;;;;;;5038353;28;20079;-80
2022/03/21 01:05:28;;;;;;;9.00;5.68;;;3.70;60.60;;;;;;5039609;28;20041;-80
2022/03/21 01:07:55;;;;;;;11.38;6.15;;;3.60;60.60;;;;;;5039229;28;20584;-79
2022/03/21 01:10:22;;;;;;;8.50;5.47;;;3.60;60.50;;;;;;5051369;28;20057;-80
2022/03/21 01:12:49;;;;;;;7.63;5.07;;;3.60;60.70;;;;;;5035674;28;20116;-80
2022/03/21 01:15:18;;;;;;;9.15;5.75;;;3.50;60.80;;;;;;5039032;28;20475;-80
2022/03/21 01:17:44;;;;;;;13.73;7.38;;;3.50;60.90;;;;;;5032205;28;20037;-79
2022/03/21 01:20:12;;;;;;;9.10;5.57;;;3.50;61.00;;;;;;5039951;28;20398;-80
2022/03/21 01:22:38;;;;;;;13.82;7.30;;;3.50;60.90;;;;;;5039545;28;20083;-79
2022/03/21 01:25:05;;;;;;;11.95;6.47;;;3.50;61.00;;;;;;5039479;28;20033;-80
2022/03/21 01:27:31;;;;;;;10.70;6.00;;;3.40;61.10;;;;;;5038221;28;20159;-80
2022/03/21 01:29:57;;;;;;;10.10;6.50;;;3.40;61.50;;;;;;5039830;28;20026;-80
2022/03/21 01:32:23;;;;;;;11.82;6.43;;;3.30;61.80;;;;;;5038644;28;20033;-80
2022/03/21 01:34:48;;;;;;;10.90;6.57;;;3.30;62.10;;;;;;5038842;28;20056;-80
2022/03/21 01:37:14;;;;;;;13.73;6.80;;;3.20;62.30;;;;;;5038204;28;20083;-80
2022/03/21 01:39:40;;;;;;;12.38;6.85;;;3.20;62.60;;;;;;5052020;28;20056;-78
2022/03/21 01:42:07;;;;;;;9.82;6.28;;;3.10;62.80;;;;;;5051290;28;20104;-79
2022/03/21 01:44:33;;;;;;;9.18;5.85;;;3.10;63.10;;;;;;5042370;28;20030;-79
2022/03/21 01:46:59;;;;;;;9.70;6.20;;;3.00;63.30;;;;;;5045890;28;20112;-79
2022/03/21 01:49:26;;;;;;;10.68;6.25;;;3.00;63.50;;;;;;5047182;28;20037;-79
2022/03/21 01:51:53;;;;;;;10.15;6.28;;;2.90;63.60;;;;;;5045302;28;20021;-79
2022/03/21 01:57:04;;;;;;;10.65;5.97;;;2.90;64.20;;;;;;5041292;28;20513;-79
2022/03/21 01:59:32;;;;;;;7.93;5.38;;;2.90;64.30;;;;;;5038339;28;20041;-79
2022/03/21 02:01:58;;;;;;;9.93;5.88;;;2.80;64.30;;;;;;5039155;28;20030;-79
2022/03/21 02:04:24;;;;;;;9.57;5.80;;;2.80;64.50;;;;;;5038161;28;20025;-79
2022/03/21 02:06:50;;;;;;;10.55;5.60;;;2.80;64.70;;;;;;5039105;28;20029;-79
2022/03/21 02:09:16;;;;;;;13.70;6.90;;;2.80;64.90;;;;;;5037720;28;20029;-80
2022/03/21 02:11:42;;;;;;;10.60;6.22;;;2.80;64.90;;;;;;5038723;28;20017;-79
2022/03/21 02:14:09;;;;;;;10.60;5.50;;;2.70;65.50;;;;;;5039506;28;20096;-79
2022/03/21 02:16:37;;;;;;;9.38;5.70;;;2.70;64.90;;;;;;5038274;28;20063;-79
2022/03/21 02:19:30;;;;;;;11.00;5.97;;;2.70;64.70;;;;;;5040784;28;20354;-79
2022/03/21 02:22:08;;;;;;;;;;;2.70;64.60;;;;;;5042824;28;20025;-79
2022/03/21 02:25:07;;;;;;;9.73;5.40;;;2.70;64.60;;;;;;5024651;28;19909;-80
2022/03/21 02:27:34;;;;;;;10.35;5.80;;;2.70;64.50;;;;;;5053873;28;20033;-80
2022/03/21 02:30:01;;;;;;;8.50;4.97;;;2.70;64.40;;;;;;5038483;28;20041;-79
2022/03/21 02:32:28;;;;;;;10.27;5.72;;;2.70;64.20;;;;;;5037769;28;20021;-80
2022/03/21 02:34:56;;;;;;;10.85;5.55;;;2.70;64.30;;;;;;5038490;28;21288;-80
2022/03/21 02:37:24;;;;;;;10.50;5.72;;;2.70;64.40;;;;;;5036794;28;20033;-81
2022/03/21 02:39:52;;;;;;;9.43;5.47;;;2.70;64.40;;;;;;5035925;28;20128;-80
2022/03/21 02:42:17;;;;;;;8.05;5.28;;;2.70;64.40;;;;;;5036818;28;20034;-80
2022/03/21 02:44:44;;;;;;;7.43;4.50;;;2.70;64.40;;;;;;5056113;28;20028;-79
2022/03/21 02:47:12;;;;;;;7.28;4.47;;;2.70;64.50;;;;;;5041307;28;20184;-80
2022/03/21 02:49:41;;;;;;;10.35;5.50;;;2.70;64.60;;;;;;5022178;28;20068;-79
2022/03/21 02:52:09;;;;;;;9.73;5.82;;;2.70;64.60;;;;;;5023095;28;20040;-79
2022/03/21 02:54:35;;;;;;;8.32;5.10;;;2.70;64.80;;;;;;5042334;28;20120;-80
2022/03/21 02:57:04;;;;;;;10.32;5.50;;;2.70;65.00;;;;;;5040900;28;20055;-80
2022/03/21 02:59:29;;;;;;;6.60;4.90;;;2.60;65.30;;;;;;5032797;28;20042;-80
2022/03/21 03:01:55;;;;;;;12.82;6.60;;;2.60;65.60;;;;;;5019175;28;20518;-79
2022/03/21 03:04:23;;;;;;;11.63;6.30;;;2.50;66.00;;;;;;5038738;28;20167;-78
2022/03/21 03:06:49;;;;;;;12.70;7.28;;;2.40;66.50;;;;;;5118557;22;20075;-80
2022/03/21 03:09:14;;;;;;;9.27;6.10;;;2.40;67.00;;;;;;5057254;28;20108;-81
2022/03/21 03:11:40;;;;;;;9.65;5.75;;;2.30;67.40;;;;;;5058213;28;20039;-79
2022/03/21 03:14:06;;;;;;;10.32;6.68;;;2.30;67.60;;;;;;5063819;28;20060;-79
2022/03/21 03:16:32;;;;;;;10.70;6.18;;;2.20;67.80;;;;;;5073688;28;20036;-79
2022/03/21 03:18:58;;;;;;;7.43;4.80;;;2.20;68.00;;;;;;5064882;28;20041;-78
2022/03/21 03:21:26;;;;;;;8.82;5.75;;;2.30;68.30;;;;;;5057017;28;20071;-79
2022/03/21 03:23:53;;;;;;;8.30;5.13;;;2.20;68.40;;;;;;5057225;28;20025;-79
2022/03/21 03:26:19;;;;;;;12.35;6.25;;;2.30;68.40;;;;;;5055909;28;20028;-79
2022/03/21 03:28:45;;;;;;;9.23;6.13;;;2.30;69.10;;;;;;5060272;28;20089;-79
2022/03/21 03:31:14;;;;;;;10.88;5.65;;;2.20;68.50;;;;;;5057141;28;20033;-80
2022/03/21 03:33:41;;;;;;;9.85;5.75;;;2.20;68.50;;;;;;5062380;28;20033;-79
2022/03/21 03:36:07;;;;;;;10.10;5.60;;;2.20;68.80;;;;;;5063171;28;20025;-79
2022/03/21 03:38:33;;;;;;;12.75;5.63;;;2.20;69.10;;;;;;5069741;28;20025;-79
2022/03/21 03:40:58;;;;;;;9.68;5.28;;;2.10;69.30;;;;;;5072301;28;20040;-79
2022/03/21 03:43:24;;;;;;;8.95;5.53;;;2.10;69.90;;;;;;5067766;28;20028;-79
2022/03/21 03:45:52;;;;;;;10.40;5.53;;;2.10;70.40;;;;;;5059807;28;20033;-79
2022/03/21 03:48:20;;;;;;;11.90;5.82;;;2.00;70.60;;;;;;5060137;28;20032;-79
2022/03/21 03:50:46;;;;;;;8.98;5.50;;;2.00;70.80;;;;;;5059507;28;20033;-79
2022/03/21 03:53:12;;;;;;;13.73;6.10;;;2.00;71.00;;;;;;5061155;28;20077;-79
2022/03/21 03:55:37;;;;;;;10.55;6.30;;;2.00;70.90;;;;;;5061170;28;20108;-79
2022/03/21 03:58:03;;;;;;;12.43;6.10;;;2.00;70.90;;;;;;5067245;28;20040;-79
2022/03/21 04:00:29;;;;;;;9.93;6.38;;;1.90;70.80;;;;;;5058835;28;20044;-79
2022/03/21 04:05:39;;;;;;;12.82;6.38;;;1.90;70.50;;;;;;5060382;28;20466;-79
2022/03/21 04:08:05;;;;;;;12.27;6.35;;;1.90;70.40;;;;;;5059161;28;20048;-79
2022/03/21 04:10:31;;;;;;;12.25;5.78;;;1.90;70.60;;;;;;5059753;28;20044;-78
2022/03/21 04:12:57;;;;;;;11.55;6.40;;;1.80;71.00;;;;;;5059311;28;20029;-78
2022/03/21 04:15:23;;;;;;;13.45;7.07;;;1.80;71.30;;;;;;5060314;28;20035;-78
2022/03/21 04:17:50;;;;;;;12.23;7.30;;;1.80;71.80;;;;;;5057841;28;20144;-78
2022/03/21 04:20:16;;;;;;;10.68;6.25;;;1.70;72.60;;;;;;5059547;28;20017;-78
2022/03/21 04:22:42;;;;;;;11.93;6.78;;;1.70;73.30;;;;;;5058486;28;20116;-78
2022/03/21 04:25:13;;;;;;;10.68;6.10;;;1.60;74.00;;;;;;5059480;28;20025;-79
2022/03/21 04:27:39;;;;;;;11.43;6.00;;;1.60;74.50;;;;;;5057496;28;20123;-78
2022/03/21 04:30:06;;;;;;;13.45;7.57;;;1.50;74.60;;;;;;5057947;28;20052;-79
2022/03/21 04:32:32;;;;;;;13.35;7.22;;;1.50;74.50;;;;;;5059047;28;20056;-79
2022/03/21 04:34:58;;;;;;;11.48;6.80;;;1.50;74.50;;;;;;5059450;28;20037;-79
2022/03/21 04:37:25;;;;;;;11.65;6.88;;;1.50;74.60;;;;;;5059283;28;20032;-79
2022/03/21 04:39:50;;;;;;;12.88;6.45;;;1.50;74.80;;;;;;5059670;28;20060;-80
2022/03/21 04:42:16;;;;;;;12.25;6.57;;;1.50;75.10;;;;;;5058295;28;20036;-80
2022/03/21 04:44:44;;;;;;;11.35;6.72;;;1.50;75.70;;;;;;5060251;28;20485;-79
2022/03/21 04:47:11;;;;;;;12.75;7.47;;;1.50;75.10;;;;;;5059867;28;20061;-79
2022/03/21 04:49:37;;;;;;;14.13;7.43;;;1.50;74.90;;;;;;5063980;28;20041;-79
2022/03/21 04:52:03;;;;;;;11.63;6.82;;;1.40;74.70;;;;;;5076413;28;20108;-79
2022/03/21 04:54:29;;;;;;;14.15;6.97;;;1.40;74.70;;;;;;5070485;28;20044;-79
2022/03/21 04:56:55;;;;;;;10.95;6.80;;;1.40;74.60;;;;;;5076168;28;20036;-79
2022/03/21 04:59:21;;;;;;;12.45;7.05;;;1.30;74.50;;;;;;5076502;28;20029;-79
2022/03/21 05:01:47;;;;;;;15.15;7.93;;;1.30;74.40;;;;;;5073573;28;20374;-81
2022/03/21 05:04:13;;;;;;;13.43;7.20;;;1.30;74.40;;;;;;5059614;28;20505;-80
2022/03/21 05:06:39;;;;;;;10.43;5.93;;;1.30;74.40;;;;;;5059949;28;20119;-80
2022/03/21 05:09:06;;;;;;;13.10;6.78;;;1.30;74.40;;;;;;5060380;28;20027;-80
2022/03/21 05:11:32;;;;;;;11.77;6.78;;;1.30;74.40;;;;;;5060956;28;20028;-78
2022/03/21 05:13:58;;;;;;;11.80;6.88;;;1.30;74.50;;;;;;5060198;28;20021;-80
2022/03/21 05:16:24;;;;;;;15.77;6.82;;;1.30;74.60;;;;;;5067519;28;20029;-79
2022/03/21 05:18:50;;;;;;;11.98;7.32;;;1.30;74.90;;;;;;5077044;22;20041;-79
2022/03/21 05:21:17;;;;;;;16.15;6.80;;;1.30;75.10;;;;;;5070765;28;20131;-79
2022/03/21 05:31:56;;;;;;;11.10;6.63;;;1.40;75.90;;;;;;5056298;28;20073;-80
2022/03/21 05:37:06;;;;;;;12.10;7.18;;;1.50;76.00;;;;;;5040079;28;20169;-79
2022/03/21 05:39:32;;;;;;;11.32;6.03;;;1.60;75.80;;;;;;5040513;28;20485;-80
2022/03/21 05:41:58;;;;;;;10.05;6.15;;;1.60;75.50;;;;;;5041845;28;20148;-78
2022/03/21 05:44:26;;;;;;;9.98;6.43;;;1.70;75.60;;;;;;5044927;28;20022;-79
2022/03/21 05:46:52;;;;;;;10.05;5.82;;;1.70;75.60;;;;;;5045246;28;20076;-78
2022/03/21 05:49:18;;;;;;;9.70;6.07;;;1.90;75.70;;;;;;5040526;28;20025;-79
2022/03/21 05:51:43;;;;;;;11.68;7.20;;;2.00;75.10;;;;;;5041348;28;20350;-78
2022/03/21 05:54:11;;;;;;;8.02;5.43;;;2.10;75.20;;;;;;5037160;28;20034;-79
2022/03/21 05:56:39;;;;;;;8.07;5.75;;;2.20;74.40;;;;;;5038421;28;20390;-80
2022/03/21 06:01:51;;;;;;;9.00;5.10;;;2.50;73.80;;;;;;5038037;28;20068;-79
2022/03/21 06:04:18;;;;;;;8.45;5.15;;;2.70;73.00;;;;;;5037556;28;20021;-80
2022/03/21 06:06:44;;;;;;;9.38;5.65;;;3.00;72.20;;;;;;5032167;28;20037;-79
2022/03/21 06:09:11;;;;;;;8.32;5.38;;;3.10;71.80;;;;;;5036677;28;20482;-80
2022/03/21 06:11:37;;;;;;;9.23;5.28;;;3.30;71.10;;;;;;5037196;28;20025;-80
2022/03/21 06:14:07;;;;;;;7.45;4.80;;;3.40;70.50;;;;;;5037598;28;20438;-79
2022/03/21 06:16:33;;;;;;;8.68;5.78;;;3.60;70.10;;;;;;5037591;28;20124;-78
2022/03/21 06:19:00;;;;;;;9.13;5.15;;;3.70;69.90;;;;;;5037454;28;20026;-79
2022/03/21 06:21:28;;;;;;;6.47;4.97;;;3.80;69.80;;;;;;5020381;28;20037;-79
2022/03/21 06:23:54;;;;;;;9.40;5.38;;;4.00;70.00;;;;;;5034065;28;20021;-79
2022/03/21 06:26:20;;;;;;;8.40;5.07;;;4.20;69.50;;;;;;5037926;28;20036;-80
2022/03/21 06:28:46;;;;;;;8.15;4.72;;;4.30;69.20;;;;;;5035763;28;20033;-80
2022/03/21 06:31:11;;;;;;;9.05;5.15;;;4.40;69.00;;;;;;5038103;28;20053;-80
2022/03/21 06:33:37;;;;;;;8.10;5.45;;;4.40;68.80;;;;;;5037344;28;20052;-80
2022/03/21 06:36:03;;;;;;;9.13;5.85;;;4.50;68.50;;;;;;5040850;28;20029;-79
2022/03/21 06:38:30;;;;;;;14.15;7.35;;;4.50;68.30;;;;;;5040610;28;20040;-80
2022/03/21 06:40:56;;;;;;;10.40;5.97;;;4.60;68.30;;;;;;5041870;28;20033;-79
2022/03/21 06:43:24;;;;;;;10.05;6.63;;;4.70;68.10;;;;;;5044663;28;20224;-78
2022/03/21 06:45:51;;;;;;;10.90;6.35;;;4.90;67.90;;;;;;5052216;28;20018;-79
2022/03/21 06:48:17;;;;;;;12.95;6.95;;;5.00;67.30;;;;;;5052021;28;20093;-78
2022/03/21 06:50:46;;;;;;;10.75;7.03;;;5.20;67.00;;;;;;5051111;28;20036;-78
2022/03/21 06:53:13;;;;;;;13.95;7.68;;;5.30;66.50;;;;;;5049671;28;20041;-80
2022/03/21 06:55:39;;;;;;;14.25;8.90;;;5.40;65.90;;;;;;5049139;28;20056;-78
2022/03/21 06:58:06;;;;;;;16.27;8.88;;;5.40;65.70;;;;;;5043502;28;20029;-78
2022/03/21 07:00:32;;;;;;;15.55;8.55;;;5.50;65.40;;;;;;5050610;28;20051;-82
2022/03/21 07:02:58;;;;;;;14.90;8.43;;;5.50;65.20;;;;;;5047902;28;20049;-79
2022/03/21 07:05:26;;;;;;;14.18;8.45;;;5.40;65.10;;;;;;5043513;28;20049;-79
2022/03/21 07:07:52;;;;;;;14.05;8.35;;;5.40;65.20;;;;;;5042813;28;20025;-80
2022/03/21 07:10:18;;;;;;;13.05;8.35;;;5.40;65.20;;;;;;5039562;28;20100;-79
2022/03/21 07:12:44;;;;;;;12.02;7.53;;;5.60;65.00;;;;;;5044460;28;20032;-79
2022/03/21 07:15:09;;;;;;;12.77;8.02;;;5.70;64.20;;;;;;5037840;28;20030;-79
2022/03/21 07:17:35;;;;;;;11.07;6.80;;;5.80;64.10;;;;;;5039782;28;20017;-79
2022/03/21 07:20:02;;;;;;;9.70;6.35;;;6.00;63.80;;;;;;5037066;28;20061;-78
2022/03/21 07:22:29;;;;;;;15.70;7.47;;;6.20;63.50;;;;;;5037223;28;20065;-79
2022/03/21 07:24:55;;;;;;;14.35;7.88;;;6.30;62.90;;;;;;5038389;28;20473;-80
2022/03/21 07:27:20;;;;;;;11.23;6.70;;;6.50;62.20;;;;;;5039241;28;20435;-80
2022/03/21 07:29:46;;;;;;;8.85;6.68;;;6.60;61.50;;;;;;5037549;28;20025;-79
2022/03/21 07:32:12;;;;;;;11.60;6.70;;;6.50;61.40;;;;;;5053578;28;20029;-77
2022/03/21 07:34:38;;;;;;;19.92;9.13;;;6.50;61.50;;;;;;5040555;28;20030;-80
2022/03/21 07:37:04;;;;;;;13.13;9.02;;;6.30;61.40;;;;;;5038161;28;20113;-79
2022/03/21 07:39:33;;;;;;;19.65;10.82;;;6.30;62.40;;;;;;5037799;28;20033;-79
2022/03/21 07:42:01;;;;;;;19.55;9.80;;;6.30;61.50;;;;;;5037713;28;20386;-80
2022/03/21 07:47:20;;;;;;;17.10;8.50;;;6.50;61.60;;;;;;5040941;28;20555;-78
2022/03/21 07:49:55;;;;;;;17.60;9.35;;;6.80;61.20;;;;;;5035949;28;20480;-80
2022/03/21 07:52:22;;;;;;;14.25;9.43;;;7.00;60.40;;;;;;5041514;28;20040;-79
2022/03/21 07:54:55;;;;;;;14.48;7.97;;;7.10;60.00;;;;;;5051604;28;20040;-78
2022/03/21 07:57:24;;;;;;;13.35;8.00;;;7.40;59.40;;;;;;5046231;28;20033;-78
2022/03/21 07:59:50;;;;;;;18.08;9.38;;;7.50;58.70;;;;;;5038455;28;20033;-80
2022/03/21 08:02:19;;;;;;;16.65;10.13;;;7.50;58.00;;;;;;5037889;28;20033;-78
2022/03/21 08:04:48;;;;;;;21.70;10.20;;;7.50;57.30;;;;;;5037081;28;20017;-79
2022/03/21 08:07:14;;;;;;;26.10;10.68;;;7.50;57.40;;;;;;5037217;28;20021;-79
2022/03/21 08:09:40;;;;;;;14.65;8.50;;;7.40;57.50;;;;;;5036565;28;20116;-79
2022/03/21 08:12:07;;;;;;;15.10;8.68;;;7.50;58.20;;;;;;5037486;28;20031;-79
2022/03/21 08:14:33;;;;;;;13.73;8.85;;;7.90;58.80;;;;;;5038233;28;20027;-80
2022/03/21 08:16:59;;;;;;;13.98;8.52;;;8.10;56.90;;;;;;5037691;28;20129;-78
2022/03/21 08:19:25;;;;;;;15.13;9.02;;;8.20;56.60;;;;;;5036320;28;20071;-79
2022/03/21 08:21:53;;;;;;;12.23;8.15;;;8.50;56.10;;;;;;5041939;28;20140;-80
2022/03/21 08:24:19;;;;;;;12.73;8.38;;;8.90;55.70;;;;;;5041828;28;20025;-80
2022/03/21 08:26:45;;;;;;;17.55;10.43;;;9.10;54.40;;;;;;5041535;28;20466;-79
2022/03/21 08:29:10;;;;;;;25.85;10.88;;;9.10;53.30;;;;;;5040773;28;20028;-78
2022/03/21 08:31:36;;;;;;;20.25;11.73;;;9.00;52.50;;;;;;5042347;28;20041;-79
2022/03/21 08:34:05;;;;;;;19.13;10.90;;;9.00;52.40;;;;;;5041693;28;20109;-80
2022/03/21 08:36:32;;;;;;;19.17;11.05;;;8.90;52.20;;;;;;5043732;28;20025;-79
2022/03/21 08:38:59;;;;;;;20.80;12.68;;;8.80;52.50;;;;;;5041932;28;20041;-79
2022/03/21 08:41:25;;;;;;;16.13;10.05;;;8.90;51.70;;;;;;5042152;28;20097;-79
2022/03/21 08:43:50;;;;;;;18.45;10.98;;;9.00;51.70;;;;;;5042130;28;20049;-80
2022/03/21 08:46:16;;;;;;;19.27;10.90;;;9.10;51.50;;;;;;5042392;28;20034;-80
2022/03/21 08:51:26;;;;;;;15.45;9.85;;;9.30;50.30;;;;;;5038532;28;20048;-78
2022/03/21 08:53:53;;;;;;;18.00;9.25;;;9.50;50.40;;;;;;5041970;28;20037;-80
2022/03/21 08:56:19;;;;;;;15.82;9.52;;;9.70;50.70;;;;;;5041091;28;20027;-80
2022/03/21 08:58:44;;;;;;;18.67;11.63;;;10.30;49.70;;;;;;5042261;28;20093;-79
2022/03/21 09:01:10;;;;;;;17.25;10.27;;;10.50;47.40;;;;;;5039871;28;20057;-80
2022/03/21 09:03:36;;;;;;;17.25;10.70;;;10.40;47.70;;;;;;5041020;28;20033;-78
2022/03/21 09:06:02;;;;;;;16.05;10.15;;;10.40;47.60;;;;;;5043921;28;20125;-79
2022/03/21 09:08:27;;;;;;;19.63;9.85;;;10.40;47.30;;;;;;5041237;28;20049;-80
2022/03/21 09:10:54;;;;;;;22.80;10.23;;;10.50;47.40;;;;;;5040811;28;20025;-79
2022/03/21 09:13:19;;;;;;;17.13;9.95;;;10.90;46.70;;;;;;5063135;28;20025;-80
2022/03/21 09:15:45;;;;;;;14.45;9.13;;;11.30;45.60;;;;;;5041144;28;20035;-80
2022/03/21 09:18:11;;;;;;;16.30;9.13;;;11.50;44.60;;;;;;5040100;28;20442;-79
2022/03/21 09:20:37;;;;;;;16.02;11.07;;;11.30;44.30;;;;;;5040996;28;20072;-78
2022/03/21 09:23:04;;;;;;;18.33;11.10;;;11.40;43.70;;;;;;5037987;28;20028;-80
2022/03/21 09:25:30;;;;;;;17.40;9.88;;;11.50;43.70;;;;;;5038632;28;20028;-78
2022/03/21 09:27:56;;;;;;;16.02;9.88;;;11.80;43.90;;;;;;5041136;28;20419;-80
2022/03/21 09:30:23;;;;;;;15.27;8.85;;;11.90;44.10;;;;;;5047433;28;20062;-80
2022/03/21 09:32:50;;;;;;;24.08;11.45;;;12.20;44.10;;;;;;5053202;28;20029;-79
2022/03/21 09:35:15;;;;;;;16.30;10.15;;;12.30;43.30;;;;;;5051924;28;20049;-78
2022/03/21 09:37:42;;;;;;;13.32;9.00;;;12.40;43.40;;;;;;5067135;28;20029;-79
2022/03/21 09:40:09;;;;;;;17.55;10.75;;;12.50;43.00;;;;;;5049391;28;20033;-78
2022/03/21 09:42:36;;;;;;;17.38;10.93;;;12.50;42.30;;;;;;5050436;28;20029;-78
2022/03/21 09:45:03;;;;;;;21.17;10.70;;;12.40;42.50;;;;;;5041721;28;20033;-79
2022/03/21 09:50:16;;;;;;;18.02;11.45;;;12.60;42.30;;;;;;5051416;28;20087;-77
2022/03/21 09:52:42;;;;;;;21.17;12.18;;;12.60;42.20;;;;;;5051844;28;20089;-80
2022/03/21 09:55:09;;;;;;;18.08;11.07;;;12.70;42.30;;;;;;5051001;28;20045;-78
2022/03/21 09:57:35;;;;;;;18.20;11.55;;;12.80;41.90;;;;;;5049298;28;20078;-78
2022/03/21 10:00:03;;;;;;;20.58;10.95;;;13.00;42.00;;;;;;5049031;28;20033;-79
2022/03/21 10:02:29;;;;;;;18.08;11.25;;;13.40;41.30;;;;;;5040978;28;20033;-80
2022/03/21 10:04:55;;;;;;;15.43;10.50;;;13.20;40.60;;;;;;5043133;28;20030;-76
2022/03/21 10:07:25;;;;;;;15.82;11.00;;;13.10;41.00;;;;;;5040730;28;20560;-79
2022/03/21 10:10:16;;;;;;;16.13;10.18;;;13.10;41.30;;;;;;5040701;28;20026;-80
2022/03/21 10:12:43;;;;;;;14.20;10.75;;;13.10;40.80;;;;;;5041066;28;20026;-80
2022/03/21 10:15:11;;;;;;;12.02;8.85;;;13.00;41.20;;;;;;5042859;28;20051;-79
2022/03/21 10:17:37;;;;;;;17.30;10.32;;;13.10;41.50;;;;;;5039225;28;20115;-80
2022/03/21 10:20:07;;;;;;;16.75;9.65;;;13.20;41.10;;;;;;5038676;28;20327;-80
2022/03/21 10:22:33;;;;;;;15.45;10.20;;;13.30;40.70;;;;;;5041115;28;20033;-80
2022/03/21 10:25:04;;;;;;;12.05;8.70;;;13.70;40.40;;;;;;5041209;28;20037;-79
2022/03/21 10:27:34;;;;;;;12.70;8.55;;;14.40;40.00;;;;;;5039754;28;20409;-81
2022/03/21 10:30:07;;;;;;;15.65;9.50;;;15.40;38.80;;;;;;5040227;28;20459;-80
2022/03/21 10:32:51;;;;;;;13.63;9.93;;;15.80;37.10;;;;;;5042848;28;20026;-80
2022/03/21 10:35:23;;;;;;;14.15;9.45;;;15.30;37.20;;;;;;5041345;28;20490;-78
2022/03/21 10:38:27;;;;;;;11.02;8.43;;;15.60;37.80;;;;;;5040273;28;20030;-79
2022/03/21 10:40:53;;;;;;;12.38;8.95;;;17.30;36.60;;;;;;5042161;28;20029;-80
2022/03/21 10:43:19;;;;;;;10.63;8.63;;;17.80;34.30;;;;;;5040455;28;20175;-79
2022/03/21 10:45:53;;;;;;;18.10;10.52;;;17.20;34.60;;;;;;5050379;28;20032;-80
2022/03/21 10:48:32;;;;;;;14.88;10.10;;;16.40;34.80;;;;;;5057602;28;20029;-80
2022/03/21 10:51:01;;;;;;;15.70;11.18;;;15.60;35.80;;;;;;5050763;28;20077;-79
2022/03/21 10:53:38;;;;;;;13.13;9.60;;;14.90;36.30;;;;;;5046300;28;20048;-80
2022/03/21 10:56:07;;;;;;;13.50;9.68;;;14.70;37.40;;;;;;5040427;28;20034;-80
2022/03/21 10:58:40;;;;;;;17.15;10.00;;;14.70;37.80;;;;;;5038508;28;20478;-77
2022/03/21 11:01:18;;;;;;;17.10;10.77;;;14.80;37.30;;;;;;5038417;28;20045;-78
2022/03/21 11:03:49;;;;;;;17.95;10.05;;;14.60;37.40;;;;;;5057319;28;20032;-80
2022/03/21 11:06:15;;;;;;;15.35;10.18;;;14.70;36.90;;;;;;5045074;28;20021;-79
2022/03/21 11:08:42;;;;;;;15.00;10.50;;;14.80;37.40;;;;;;5039549;28;20393;-80
2022/03/21 11:11:09;;;;;;;13.63;10.07;;;14.90;36.40;;;;;;5041525;28;20018;-79
2022/03/21 11:13:38;;;;;;;14.35;10.30;;;14.70;36.50;;;;;;5040636;28;20059;-79
2022/03/21 11:16:04;;;;;;;16.73;9.82;;;14.60;36.60;;;;;;5040063;28;20026;-79
2022/03/21 11:18:30;;;;;;;15.45;9.60;;;14.50;36.90;;;;;;5038716;28;20025;-79
2022/03/21 11:20:57;;;;;;;12.43;8.50;;;14.60;37.00;;;;;;5043389;23;20064;-80
2022/03/21 11:23:25;;;;;;;13.98;9.57;;;14.80;37.40;;;;;;5027413;28;20025;-80
2022/03/21 11:26:18;;;;;;;12.50;9.35;;;14.90;37.40;;;;;;5025531;28;20056;-80
2022/03/21 11:28:57;;;;;;;18.63;10.70;;;14.80;37.20;;;;;;5017267;28;20025;-81
2022/03/21 11:31:41;;;;;;;13.57;9.93;;;14.70;37.00;;;;;;5011915;28;20073;-80
2022/03/21 11:34:28;;;;;;;15.43;9.95;;;14.80;37.70;;;;;;5020563;28;20445;-80
2022/03/21 11:36:57;;;;;;;14.77;11.00;;;15.00;37.40;;;;;;5024249;28;20682;-81
2022/03/21 11:39:24;;;;;;;12.88;9.73;;;15.60;36.50;;;;;;5024368;28;20026;-80
2022/03/21 11:42:09;;;;;;;11.65;9.05;;;16.20;35.80;;;;;;5023514;28;20049;-81
2022/03/21 11:44:35;;;;;;;11.73;9.73;;;16.90;35.50;;;;;;4984979;28;20023;-81
2022/03/21 11:47:23;;;;;;;15.25;10.45;;;17.70;34.20;;;;;;4984096;28;20471;-80
2022/03/21 11:49:49;;;;;;;14.38;10.10;;;17.30;33.40;;;;;;5004255;28;20030;-79
2022/03/21 11:52:15;;;;;;;15.07;10.43;;;16.80;33.80;;;;;;5008403;28;20040;-81
2022/03/21 11:54:41;;;;;;;14.68;10.07;;;16.40;35.60;;;;;;5027216;28;20076;-80
2022/03/21 11:57:16;;;;;;;13.98;9.50;;;16.20;34.90;;;;;;5031461;28;20058;-79
2022/03/21 11:59:43;;;;;;;11.55;8.98;;;16.40;35.00;;;;;;5031250;28;20030;-79
2022/03/21 12:02:12;;;;;;;16.35;9.73;;;16.50;35.00;;;;;;5029852;28;20026;-79
2022/03/21 12:04:40;;;;;;;12.18;9.32;;;16.50;33.90;;;;;;5011696;28;20060;-80
2022/03/21 12:07:12;;;;;;;10.23;8.65;;;16.10;34.50;;;;;;5010875;28;20034;-80
2022/03/21 12:09:42;;;;;;;12.15;9.50;;;15.70;35.40;;;;;;5012914;28;20049;-80
2022/03/21 12:12:10;;;;;;;15.23;9.98;;;15.40;35.80;;;;;;5012422;28;20347;-80
2022/03/21 12:14:45;;;;;;;15.20;9.38;;;15.30;35.90;;;;;;5029848;28;20094;-79
2022/03/21 12:17:11;;;;;;;14.27;9.80;;;15.30;35.70;;;;;;5030725;28;20089;-79
2022/03/21 12:19:57;;;;;;;14.68;8.90;;;15.10;35.80;;;;;;5015409;28;20037;-80
2022/03/21 12:22:39;;;;;;;15.35;9.20;;;15.10;36.10;;;;;;5005922;28;20029;-80
2022/03/21 12:25:05;;;;;;;;;;;14.90;36.20;;;;;;5002815;28;20030;-80
2022/03/21 12:27:32;;;;;;;14.00;8.98;;;15.10;36.10;;;;;;5014382;28;19912;-80
2022/03/21 12:30:20;;;;;;;13.35;9.18;;;15.10;35.70;;;;;;5027725;28;20044;-80
2022/03/21 12:32:53;;;;;;;14.85;9.60;;;15.10;36.10;;;;;;5027750;28;20033;-79
2022/03/21 12:35:31;;;;;;;15.57;9.75;;;15.10;36.20;;;;;;5026833;28;20050;-80
2022/03/21 12:38:05;;;;;;;13.73;9.43;;;15.20;36.30;;;;;;5006259;28;20026;-80
2022/03/21 12:40:36;;;;;;;14.23;9.48;;;15.40;36.40;;;;;;5007276;28;20026;-80
2022/03/21 12:43:03;;;;;;;13.85;9.57;;;15.50;36.30;;;;;;5005059;28;20395;-80
2022/03/21 12:45:29;;;;;;;12.73;9.07;;;15.50;36.20;;;;;;5006254;28;20437;-80
2022/03/21 12:48:09;;;;;;;12.07;9.18;;;15.50;35.60;;;;;;5004717;28;20036;-81
2022/03/21 12:50:36;;;;;;;15.88;9.65;;;15.30;36.00;;;;;;5003415;28;20040;-79
2022/03/21 12:53:07;;;;;;;13.95;9.70;;;15.20;35.80;;;;;;5007244;28;20034;-80
2022/03/21 12:55:34;;;;;;;13.88;9.10;;;15.30;35.80;;;;;;5008825;28;20478;-80
2022/03/21 12:58:05;;;;;;;17.73;9.50;;;15.40;35.50;;;;;;5023675;28;20038;-79
2022/03/21 13:00:37;;;;;;;12.20;9.13;;;15.30;35.50;;;;;;5016840;28;20112;-80
2022/03/21 13:03:17;;;;;;;14.30;9.43;;;15.30;35.50;;;;;;5007518;28;20025;-80
2022/03/21 13:11:25;;;;;;;13.40;9.55;;;15.80;35.20;;;;;;5010277;28;20037;-80
2022/03/21 13:14:14;;;;;;;13.85;9.50;;;16.00;35.00;;;;;;5013314;28;20608;-79
2022/03/21 13:16:57;;;;;;;13.98;9.88;;;16.00;34.90;;;;;;4992772;28;20015;-79
2022/03/21 13:19:26;;;;;;;12.02;9.25;;;16.00;34.50;;;;;;5033736;28;20034;-80
2022/03/21 13:21:55;;;;;;;17.60;11.43;;;15.90;35.10;;;;;;5021189;28;20030;-79
2022/03/21 13:24:41;;;;;;;11.40;9.20;;;16.10;34.60;;;;;;5006910;28;20018;-79